createdAt,value
2023-06-19T00:02:42.512Z,27.90
2023-06-19T00:07:45.238Z,27.87
2023-06-19T00:12:49.331Z,27.83
2023-06-19T00:17:52.011Z,27.78
2023-06-19T00:22:54.842Z,27.69
2023-06-19T00:27:58.860Z,27.70
2023-06-19T00:33:04.310Z,27.67
2023-06-19T00:38:07.706Z,27.59
2023-06-19T00:43:11.815Z,27.53
2023-06-19T00:48:14.565Z,27.51
2023-06-19T00:53:17.267Z,27.48
2023-06-19T00:58:22.191Z,27.46
2023-06-19T01:03:24.887Z,27.45
2023-06-19T01:08:44.093Z,27.43
2023-06-19T01:13:51.419Z,27.41
2023-06-19T01:18:54.155Z,27.40
2023-06-19T01:23:58.210Z,27.38
2023-06-19T01:29:01.021Z,27.37
2023-06-19T01:34:06.637Z,27.37
2023-06-19T01:39:11.332Z,27.36
2023-06-19T01:44:14.023Z,27.34
2023-06-19T01:49:16.782Z,27.32
2023-06-19T01:54:20.828Z,27.28
2023-06-19T01:59:24.676Z,27.27
2023-06-19T02:04:27.432Z,27.23
2023-06-19T02:09:31.470Z,27.18
2023-06-19T02:14:34.158Z,27.19
2023-06-19T02:19:37.436Z,27.15
2023-06-19T02:24:41.494Z,27.15
2023-06-19T02:29:44.290Z,27.15
2023-06-19T02:34:47.207Z,27.17
2023-06-19T02:39:51.243Z,27.14
2023-06-19T02:44:53.947Z,27.14
2023-06-19T02:49:56.650Z,27.16
2023-06-19T02:55:01.070Z,27.16
2023-06-19T03:00:07.016Z,27.12
2023-06-19T03:05:10.754Z,27.11
2023-06-19T03:10:14.855Z,27.10
2023-06-19T03:15:18.250Z,27.11
2023-06-19T03:20:25.210Z,27.09
2023-06-19T03:25:35.882Z,27.08
2023-06-19T03:30:39.381Z,27.04
2023-06-19T03:35:42.791Z,27.04
2023-06-19T03:40:53.517Z,27.00
2023-06-19T03:45:57.283Z,26.99
2023-06-19T03:51:01.797Z,26.98
2023-06-19T03:56:06.557Z,26.99
2023-06-19T04:01:09.480Z,26.98
2023-06-19T04:06:12.195Z,26.98
2023-06-19T04:11:17.637Z,26.97
2023-06-19T04:16:21.433Z,26.98
2023-06-19T04:21:24.628Z,26.97
2023-06-19T04:26:28.712Z,26.99
2023-06-19T04:31:31.862Z,27.01
2023-06-19T04:36:34.721Z,27.09
2023-06-19T04:41:39.470Z,27.14
2023-06-19T04:46:42.715Z,27.12
2023-06-19T04:51:45.463Z,27.04
2023-06-19T04:56:49.446Z,26.94
2023-06-19T05:01:54.905Z,26.93
2023-06-19T05:06:57.614Z,26.91
2023-06-19T05:12:01.630Z,26.91
2023-06-19T05:17:04.481Z,26.92
2023-06-19T05:22:07.752Z,26.92
2023-06-19T05:27:11.799Z,26.99
2023-06-19T05:32:14.974Z,27.04
2023-06-19T05:37:18.176Z,27.03
2023-06-19T05:42:22.212Z,27.03
2023-06-19T05:47:26.857Z,27.12
2023-06-19T05:52:29.835Z,27.11
2023-06-19T05:57:34.634Z,27.23
2023-06-19T06:02:37.369Z,27.28
2023-06-19T06:07:41.586Z,27.33
2023-06-19T06:12:45.978Z,27.42
2023-06-19T06:17:48.643Z,27.22
2023-06-19T06:22:51.442Z,27.09
2023-06-19T06:27:55.424Z,27.08
2023-06-19T06:32:58.115Z,27.01
2023-06-19T06:38:00.834Z,26.99
2023-06-19T06:43:04.852Z,26.97
2023-06-19T06:48:08.123Z,26.97
2023-06-19T06:53:10.961Z,26.96
2023-06-19T06:58:15.373Z,26.94
2023-06-19T07:03:19.128Z,26.94
2023-06-19T07:08:21.976Z,26.91
2023-06-19T07:13:26.764Z,26.95
2023-06-19T07:18:29.612Z,26.93
2023-06-19T07:23:32.336Z,26.94
2023-06-19T07:28:37.244Z,26.97
2023-06-19T07:33:39.950Z,26.97
2023-06-19T07:38:42.597Z,26.94
2023-06-19T07:43:46.661Z,26.95
2023-06-19T07:48:49.364Z,26.96
2023-06-19T07:53:52.036Z,26.94
2023-06-19T07:58:56.180Z,26.94
2023-06-19T08:03:58.934Z,26.94
2023-06-19T08:09:01.612Z,26.93
2023-06-19T08:14:05.696Z,26.93
2023-06-19T08:19:08.353Z,26.93
2023-06-19T08:24:11.034Z,26.94
2023-06-19T08:29:15.206Z,26.91
2023-06-19T08:34:17.884Z,26.94
2023-06-19T08:39:21.284Z,26.96
2023-06-19T08:44:25.373Z,26.97
2023-06-19T08:49:28.602Z,27.01
2023-06-19T08:54:31.384Z,27.14
2023-06-19T08:59:35.502Z,27.12
2023-06-19T09:04:38.142Z,27.09
2023-06-19T09:09:46.545Z,27.17
2023-06-19T09:14:50.546Z,27.14
2023-06-19T09:19:54.039Z,27.05
2023-06-19T09:25:02.151Z,27.19
2023-06-19T09:30:17.574Z,27.12
2023-06-19T09:35:21.873Z,27.09
2023-06-19T09:40:26.276Z,27.09
2023-06-19T09:45:31.538Z,27.12
2023-06-19T09:50:35.664Z,27.09
2023-06-19T09:55:39.870Z,27.09
2023-06-19T10:00:44.986Z,27.17
2023-06-19T10:05:47.724Z,27.17
2023-06-19T10:10:50.800Z,27.13
2023-06-19T10:15:54.802Z,27.15
2023-06-19T10:20:57.572Z,27.17
2023-06-19T10:26:03.007Z,27.20
2023-06-19T10:31:09.139Z,27.19
2023-06-19T10:36:16.267Z,27.18
2023-06-19T10:41:19.023Z,27.20
2023-06-19T10:46:24.931Z,27.23
2023-06-19T10:51:28.758Z,27.18
2023-06-19T10:56:31.451Z,27.21
2023-06-19T11:01:45.177Z,27.22
2023-06-19T11:06:51.322Z,27.22
2023-06-19T11:12:00.727Z,27.23
2023-06-19T11:17:05.340Z,27.24
2023-06-19T11:22:08.921Z,27.30
2023-06-19T11:27:18.782Z,27.27
2023-06-19T11:32:26.213Z,27.28
2023-06-19T11:37:31.486Z,27.29
2023-06-19T11:42:34.614Z,27.33
2023-06-19T11:47:38.986Z,27.34
2023-06-19T11:52:42.051Z,27.33
2023-06-19T11:57:44.846Z,27.33
2023-06-19T12:02:49.321Z,27.35
2023-06-19T12:07:52.283Z,27.38
2023-06-19T12:12:56.009Z,27.38
2023-06-19T12:18:00.029Z,27.43
2023-06-19T12:23:02.944Z,27.40
2023-06-19T12:28:09.271Z,27.44
2023-06-19T12:33:13.548Z,27.47
2023-06-19T12:38:16.244Z,27.52
2023-06-19T12:43:18.921Z,27.52
2023-06-19T12:48:22.932Z,27.55
2023-06-19T12:53:29.952Z,27.53
2023-06-19T12:58:32.747Z,27.55
2023-06-19T13:03:36.837Z,27.56
2023-06-19T13:08:39.582Z,27.57
2023-06-19T13:13:42.261Z,27.56
2023-06-19T13:18:46.281Z,27.60
2023-06-19T13:23:50.118Z,27.62
2023-06-19T13:28:52.853Z,27.65
2023-06-19T13:33:56.838Z,27.66
2023-06-19T13:38:59.628Z,27.67
2023-06-19T13:44:02.771Z,27.70
2023-06-19T13:49:06.867Z,27.69
2023-06-19T13:54:09.558Z,27.70
2023-06-19T13:59:12.287Z,27.69
2023-06-19T14:04:16.264Z,27.71
2023-06-19T14:09:18.995Z,27.74
2023-06-19T14:14:21.850Z,27.78
2023-06-19T14:19:26.284Z,27.80
2023-06-19T14:24:29.076Z,27.79
2023-06-19T14:29:56.708Z,27.79
2023-06-19T14:35:00.713Z,27.80
2023-06-19T14:40:03.495Z,27.85
2023-06-19T14:45:06.677Z,27.87
2023-06-19T14:50:11.361Z,27.85
2023-06-19T14:55:14.004Z,27.83
2023-06-19T15:00:17.052Z,27.83
2023-06-19T15:05:21.280Z,27.88
2023-06-19T15:10:24.449Z,27.90
2023-06-19T15:15:27.452Z,27.93
2023-06-19T15:20:31.736Z,27.91
2023-06-19T15:25:34.489Z,27.92
2023-06-19T15:30:37.220Z,27.96
2023-06-19T15:35:42.385Z,27.99
2023-06-19T15:40:45.344Z,27.95
2023-06-19T15:45:48.128Z,27.98
2023-06-19T15:50:52.200Z,28.01
2023-06-19T15:55:54.882Z,28.01
2023-06-19T16:00:57.582Z,28.03
2023-06-19T16:06:07.789Z,28.03
2023-06-19T16:11:12.088Z,28.06
2023-06-19T16:16:14.852Z,28.09
2023-06-19T16:21:19.588Z,28.13
2023-06-19T16:26:22.276Z,28.14
2023-06-19T16:31:25.086Z,28.13
2023-06-19T16:36:29.103Z,28.15
2023-06-19T16:41:31.830Z,28.14
2023-06-19T16:46:34.585Z,28.16
2023-06-19T16:51:38.667Z,28.20
2023-06-19T16:56:41.364Z,28.19
2023-06-19T17:01:44.420Z,28.19
2023-06-19T17:06:48.537Z,28.24
2023-06-19T17:11:52.879Z,28.24
2023-06-19T17:16:55.840Z,28.25
2023-06-19T17:21:59.924Z,28.28
2023-06-19T17:27:02.692Z,28.31
2023-06-19T17:32:06.057Z,28.35
2023-06-19T17:37:10.284Z,28.33
2023-06-19T17:42:12.977Z,28.37
2023-06-19T17:47:16.682Z,28.40
2023-06-19T17:52:20.864Z,28.44
2023-06-19T17:57:23.999Z,28.43
2023-06-19T18:02:26.874Z,28.45
2023-06-19T18:07:30.970Z,28.47
2023-06-19T18:12:33.883Z,28.49
2023-06-19T18:17:36.655Z,28.48
2023-06-19T18:22:40.804Z,28.53
2023-06-19T18:27:43.493Z,28.54
2023-06-19T18:32:46.253Z,28.47
2023-06-19T18:37:50.436Z,28.48
2023-06-19T18:42:53.193Z,28.52
2023-06-19T18:47:55.900Z,28.54
2023-06-19T18:53:00.065Z,28.54
2023-06-19T18:58:02.770Z,28.54
2023-06-19T19:03:05.535Z,28.57
2023-06-19T19:08:11.509Z,28.61
2023-06-19T19:13:14.253Z,28.66
2023-06-19T19:18:17.112Z,28.59
2023-06-19T19:23:21.265Z,28.60
2023-06-19T19:28:24.008Z,28.65
2023-06-19T19:33:26.839Z,28.75
2023-06-19T19:38:30.959Z,28.75
2023-06-19T19:43:33.802Z,28.76
2023-06-19T19:48:36.564Z,28.80
2023-06-19T19:53:40.621Z,28.80
2023-06-19T19:58:43.309Z,28.83
2023-06-19T20:03:46.716Z,28.85
2023-06-19T20:08:50.859Z,28.85
2023-06-19T20:13:53.549Z,28.83
2023-06-19T20:18:56.298Z,28.80
2023-06-19T20:24:00.528Z,28.77
2023-06-19T20:29:03.307Z,28.73
2023-06-19T20:34:07.345Z,28.72
2023-06-19T20:39:11.393Z,28.71
2023-06-19T20:44:14.722Z,28.69
2023-06-19T20:49:17.556Z,28.68
2023-06-19T20:54:21.649Z,28.64
2023-06-19T20:59:24.308Z,28.60
2023-06-19T21:04:27.028Z,28.55
2023-06-19T21:09:31.323Z,28.52
2023-06-19T21:14:35.170Z,28.51
2023-06-19T21:19:37.859Z,28.46
2023-06-19T21:24:42.074Z,28.47
2023-06-19T21:29:44.901Z,28.41
2023-06-19T21:34:47.622Z,28.43
2023-06-19T21:39:51.615Z,28.40
2023-06-19T21:44:54.341Z,28.32
2023-06-19T21:49:57.234Z,28.38
2023-06-19T21:55:01.383Z,28.31
2023-06-19T22:00:05.843Z,28.31
2023-06-19T22:05:08.981Z,28.30
2023-06-19T22:10:13.656Z,28.27
2023-06-19T22:15:16.445Z,28.22
2023-06-19T22:20:19.402Z,28.17
2023-06-19T22:25:23.957Z,28.14
2023-06-19T22:30:27.006Z,28.10
2023-06-19T22:35:29.998Z,28.09
2023-06-19T22:40:34.655Z,28.06
2023-06-19T22:45:37.464Z,28.02
2023-06-19T22:50:40.198Z,28.02
2023-06-19T22:55:44.260Z,28.00
2023-06-19T23:00:47.672Z,27.97
2023-06-19T23:05:50.369Z,27.95
2023-06-19T23:10:54.426Z,27.92
2023-06-19T23:15:57.155Z,27.89
2023-06-19T23:20:59.865Z,27.89
2023-06-19T23:26:03.981Z,27.87
2023-06-19T23:31:07.118Z,27.85
2023-06-19T23:36:09.788Z,27.83
2023-06-19T23:41:13.798Z,27.83
2023-06-19T23:46:18.644Z,27.79
2023-06-19T23:51:21.663Z,27.77
2023-06-19T23:56:25.698Z,27.77
